createdAt,value
2023-07-06T00:02:16.419Z,19.75
2023-07-06T00:04:42.572Z,19.75
2023-07-06T00:07:08.844Z,19.74
2023-07-06T00:09:34.981Z,19.74
2023-07-06T00:12:01.159Z,19.73
2023-07-06T00:14:27.319Z,19.74
2023-07-06T00:16:53.516Z,19.75
2023-07-06T00:19:19.706Z,19.74
2023-07-06T00:21:46.374Z,19.73
2023-07-06T00:24:12.550Z,19.74
2023-07-06T00:26:38.694Z,19.74
2023-07-06T00:29:04.846Z,19.74
2023-07-06T00:31:31.084Z,19.73
2023-07-06T00:33:57.254Z,19.73
2023-07-06T00:36:23.409Z,19.73
2023-07-06T00:38:49.554Z,19.72
2023-07-06T00:41:15.704Z,19.72
2023-07-06T00:43:41.867Z,19.72
2023-07-06T00:46:08.113Z,19.71
2023-07-06T00:48:34.343Z,19.71
2023-07-06T00:51:00.523Z,19.70
2023-07-06T00:53:26.671Z,19.69
2023-07-06T00:55:52.822Z,19.69
2023-07-06T00:58:18.963Z,19.68
2023-07-06T01:00:45.098Z,19.70
2023-07-06T01:03:11.313Z,19.70
2023-07-06T01:05:37.560Z,19.69
2023-07-06T01:08:03.712Z,19.68
2023-07-06T01:10:30.015Z,19.68
2023-07-06T01:12:56.456Z,19.67
2023-07-06T01:15:22.617Z,19.68
2023-07-06T01:17:48.913Z,19.67
2023-07-06T01:20:15.162Z,19.68
2023-07-06T01:22:41.349Z,19.67
2023-07-06T01:25:07.524Z,19.67
2023-07-06T01:27:34.286Z,19.66
2023-07-06T01:30:00.427Z,19.66
2023-07-06T01:32:26.604Z,19.66
2023-07-06T01:34:52.865Z,19.65
2023-07-06T01:37:19.056Z,19.65
2023-07-06T01:39:45.216Z,19.65
2023-07-06T01:42:11.383Z,19.64
2023-07-06T01:44:37.533Z,19.65
2023-07-06T01:47:03.733Z,19.64
2023-07-06T01:49:29.933Z,19.64
2023-07-06T01:51:56.070Z,19.65
2023-07-06T01:54:22.197Z,19.64
2023-07-06T01:56:48.362Z,19.64
2023-07-06T01:59:14.520Z,19.63
2023-07-06T02:01:40.665Z,19.63
2023-07-06T02:04:06.830Z,19.62
2023-07-06T02:06:32.986Z,19.64
2023-07-06T02:08:59.178Z,19.62
2023-07-06T02:11:25.348Z,19.61
2023-07-06T02:13:51.532Z,19.61
2023-07-06T02:16:17.743Z,19.61
2023-07-06T02:18:43.935Z,19.61
2023-07-06T02:21:10.085Z,19.60
2023-07-06T02:23:36.374Z,19.58
2023-07-06T02:26:02.800Z,19.60
2023-07-06T02:28:28.952Z,19.60
2023-07-06T02:30:55.195Z,19.59
2023-07-06T02:33:21.375Z,19.59
2023-07-06T02:35:47.661Z,19.59
2023-07-06T02:38:13.810Z,19.58
2023-07-06T02:40:39.963Z,19.58
2023-07-06T02:43:06.187Z,19.57
2023-07-06T02:45:32.441Z,19.57
2023-07-06T02:47:58.749Z,19.57
2023-07-06T02:50:24.975Z,19.57
2023-07-06T02:52:51.162Z,19.57
2023-07-06T02:55:17.346Z,19.57
2023-07-06T02:57:43.507Z,19.56
2023-07-06T03:00:09.677Z,19.56
2023-07-06T03:02:35.886Z,19.57
2023-07-06T03:05:02.107Z,19.55
2023-07-06T03:07:28.267Z,19.55
2023-07-06T03:09:54.509Z,19.56
2023-07-06T03:12:20.651Z,19.55
2023-07-06T03:14:46.844Z,19.56
2023-07-06T03:17:13.006Z,19.55
2023-07-06T03:19:39.153Z,19.54
2023-07-06T03:22:05.278Z,19.54
2023-07-06T03:24:34.090Z,19.55
2023-07-06T03:27:00.675Z,19.54
2023-07-06T03:29:26.860Z,19.54
2023-07-06T03:31:53.206Z,19.54
2023-07-06T03:34:19.414Z,19.52
2023-07-06T03:36:45.562Z,19.53
2023-07-06T03:39:11.817Z,19.53
2023-07-06T03:41:37.962Z,19.52
2023-07-06T03:44:04.108Z,19.53
2023-07-06T03:46:30.372Z,19.52
2023-07-06T03:48:56.669Z,19.52
2023-07-06T03:51:22.813Z,19.51
2023-07-06T03:53:48.997Z,19.51
2023-07-06T03:56:15.148Z,19.50
2023-07-06T03:58:41.309Z,19.52
2023-07-06T04:01:07.544Z,19.52
2023-07-06T04:03:33.808Z,19.51
2023-07-06T04:06:00.088Z,19.50
2023-07-06T04:08:26.280Z,19.50
2023-07-06T04:10:52.434Z,19.50
2023-07-06T04:13:18.614Z,19.50
2023-07-06T04:15:44.830Z,19.49
2023-07-06T04:18:11.001Z,19.50
2023-07-06T04:20:37.202Z,19.50
2023-07-06T04:23:03.394Z,19.49
2023-07-06T04:25:29.588Z,19.49
2023-07-06T04:27:55.737Z,19.48
2023-07-06T04:30:21.985Z,19.48
2023-07-06T04:32:48.245Z,19.47
2023-07-06T04:35:14.721Z,19.47
2023-07-06T04:37:41.448Z,19.46
2023-07-06T04:40:07.634Z,19.46
2023-07-06T04:42:33.785Z,19.46
2023-07-06T04:44:59.947Z,19.45
2023-07-06T04:47:26.127Z,19.45
2023-07-06T04:49:52.308Z,19.44
2023-07-06T04:52:18.576Z,19.45
2023-07-06T04:54:44.755Z,19.45
2023-07-06T04:57:10.929Z,19.45
2023-07-06T04:59:37.123Z,19.45
2023-07-06T05:02:03.272Z,19.46
2023-07-06T05:04:29.415Z,19.44
2023-07-06T05:06:55.583Z,19.44
2023-07-06T05:09:24.078Z,19.44
2023-07-06T05:11:50.450Z,19.44
2023-07-06T05:14:16.625Z,19.44
2023-07-06T05:16:42.858Z,19.44
2023-07-06T05:19:09.077Z,19.44
2023-07-06T05:21:35.238Z,19.43
2023-07-06T05:24:01.440Z,19.42
2023-07-06T05:26:27.591Z,19.43
2023-07-06T05:28:53.750Z,19.43
2023-07-06T05:31:19.885Z,19.43
2023-07-06T05:33:46.064Z,19.42
2023-07-06T05:36:12.344Z,19.42
2023-07-06T05:38:38.500Z,19.42
2023-07-06T05:41:04.657Z,19.42
2023-07-06T05:43:31.272Z,19.42
2023-07-06T05:45:57.667Z,19.42
2023-07-06T05:48:24.027Z,19.42
2023-07-06T05:50:50.173Z,19.42
2023-07-06T05:53:16.331Z,19.41
2023-07-06T05:55:42.519Z,19.42
2023-07-06T05:58:08.663Z,19.41
2023-07-06T06:00:34.789Z,19.41
2023-07-06T06:03:01.032Z,19.40
2023-07-06T06:05:27.294Z,19.40
2023-07-06T06:07:53.444Z,19.41
2023-07-06T06:10:19.709Z,19.40
2023-07-06T06:12:45.928Z,19.40
2023-07-06T06:15:12.134Z,19.39
2023-07-06T06:17:38.660Z,19.40
2023-07-06T06:20:05.092Z,19.40
2023-07-06T06:22:31.225Z,19.40
2023-07-06T06:24:57.397Z,19.40
2023-07-06T06:27:23.592Z,19.40
2023-07-06T06:29:49.787Z,19.40
2023-07-06T06:32:16.273Z,19.40
2023-07-06T06:34:42.512Z,19.39
2023-07-06T06:37:08.695Z,19.40
2023-07-06T06:39:34.854Z,19.40
2023-07-06T06:42:01.085Z,19.40
2023-07-06T06:44:27.248Z,19.40
2023-07-06T06:46:53.405Z,19.39
2023-07-06T06:49:19.568Z,19.40
2023-07-06T06:51:45.718Z,19.40
2023-07-06T06:54:11.853Z,19.40
2023-07-06T06:56:38.011Z,19.40
2023-07-06T06:59:04.145Z,19.40
2023-07-06T07:01:30.403Z,19.39
2023-07-06T07:03:56.696Z,19.40
2023-07-06T07:06:22.873Z,19.40
2023-07-06T07:08:49.012Z,19.40
2023-07-06T07:11:23.600Z,19.41
2023-07-06T07:13:50.626Z,19.41
2023-07-06T07:16:16.952Z,19.41
2023-07-06T07:18:43.132Z,19.40
2023-07-06T07:21:09.282Z,19.41
2023-07-06T07:23:35.450Z,19.40
2023-07-06T07:26:01.621Z,19.41
2023-07-06T07:28:27.782Z,19.41
2023-07-06T07:30:53.966Z,19.40
2023-07-06T07:33:20.130Z,19.40
2023-07-06T07:35:46.335Z,19.42
2023-07-06T07:38:12.576Z,19.42
2023-07-06T07:40:38.769Z,19.41
2023-07-06T07:43:04.927Z,19.41
2023-07-06T07:45:31.684Z,19.40
2023-07-06T07:47:57.881Z,19.41
2023-07-06T07:50:24.088Z,19.40
2023-07-06T07:52:50.266Z,19.40
2023-07-06T07:55:16.406Z,19.40
2023-07-06T07:57:42.546Z,19.40
2023-07-06T08:00:08.695Z,19.40
2023-07-06T08:02:34.917Z,19.41
2023-07-06T08:05:01.082Z,19.42
2023-07-06T08:07:29.835Z,19.41
2023-07-06T08:09:56.008Z,19.41
2023-07-06T08:12:22.160Z,19.41
2023-07-06T08:14:48.343Z,19.42
2023-07-06T08:17:14.479Z,19.43
2023-07-06T08:20:08.412Z,19.43
2023-07-06T08:22:26.766Z,19.43
2023-07-06T08:24:52.909Z,19.43
2023-07-06T08:27:21.764Z,19.42
2023-07-06T08:29:49.193Z,19.43
2023-07-06T08:32:15.355Z,19.44
2023-07-06T08:34:41.496Z,19.43
2023-07-06T08:37:07.677Z,19.43
2023-07-06T08:39:33.806Z,19.42
2023-07-06T08:41:59.954Z,19.42
2023-07-06T08:44:26.123Z,19.43
2023-07-06T08:46:52.325Z,19.43
2023-07-06T08:49:18.495Z,19.43
2023-07-06T08:51:44.685Z,19.43
2023-07-06T08:54:10.835Z,19.43
2023-07-06T08:56:36.969Z,19.43
2023-07-06T08:59:03.172Z,19.44
2023-07-06T09:01:29.394Z,19.43
2023-07-06T09:03:55.712Z,19.44
2023-07-06T09:06:21.986Z,19.43
2023-07-06T09:08:48.144Z,19.44
2023-07-06T09:11:21.206Z,19.44
2023-07-06T09:13:48.269Z,19.45
2023-07-06T09:16:14.539Z,19.46
2023-07-06T09:18:40.717Z,19.46
2023-07-06T09:21:06.886Z,19.45
2023-07-06T09:23:33.060Z,19.46
2023-07-06T09:25:59.445Z,19.47
2023-07-06T09:28:25.686Z,19.47
2023-07-06T09:30:51.861Z,19.47
2023-07-06T09:33:18.084Z,19.47
2023-07-06T09:35:44.277Z,19.49
2023-07-06T09:38:10.443Z,19.49
2023-07-06T09:40:36.674Z,19.49
2023-07-06T09:43:02.873Z,19.49
2023-07-06T09:45:29.036Z,19.50
2023-07-06T09:47:55.184Z,19.48
2023-07-06T09:50:22.037Z,19.50
2023-07-06T09:52:48.309Z,19.50
2023-07-06T09:55:14.511Z,19.51
2023-07-06T09:57:40.678Z,19.50
2023-07-06T10:00:06.835Z,19.52
2023-07-06T10:02:33.188Z,19.52
2023-07-06T10:04:59.488Z,19.52
2023-07-06T10:07:25.727Z,19.52
2023-07-06T10:09:51.910Z,19.52
2023-07-06T10:12:18.094Z,19.52
2023-07-06T10:14:44.305Z,19.52
2023-07-06T10:17:10.522Z,19.54
2023-07-06T10:19:36.719Z,19.54
2023-07-06T10:22:02.870Z,19.55
2023-07-06T10:24:29.113Z,19.54
2023-07-06T10:26:55.366Z,19.54
2023-07-06T10:29:21.502Z,19.55
2023-07-06T10:31:47.680Z,19.56
2023-07-06T10:34:13.877Z,19.56
2023-07-06T10:36:40.010Z,19.57
2023-07-06T10:39:06.155Z,19.57
2023-07-06T10:41:32.736Z,19.58
2023-07-06T10:43:59.081Z,19.58
2023-07-06T10:46:25.238Z,19.59
2023-07-06T10:48:51.426Z,19.59
2023-07-06T10:51:17.596Z,19.58
2023-07-06T10:53:43.758Z,19.59
2023-07-06T10:56:10.471Z,19.60
2023-07-06T10:58:36.634Z,19.62
2023-07-06T11:01:02.849Z,19.61
2023-07-06T11:03:29.103Z,19.60
2023-07-06T11:05:55.663Z,19.61
2023-07-06T11:08:22.021Z,19.61
2023-07-06T11:10:48.219Z,19.62
2023-07-06T11:13:14.350Z,19.62
2023-07-06T11:15:40.636Z,19.63
2023-07-06T11:18:06.903Z,19.63
2023-07-06T11:20:33.114Z,19.63
2023-07-06T11:22:59.263Z,19.65
2023-07-06T11:25:25.441Z,19.65
2023-07-06T11:27:51.585Z,19.65
2023-07-06T11:30:17.726Z,19.66
2023-07-06T11:32:43.960Z,19.66
2023-07-06T11:35:10.230Z,19.66
2023-07-06T11:37:49.039Z,19.67
2023-07-06T11:40:22.517Z,19.67
2023-07-06T11:42:48.660Z,19.68
2023-07-06T11:45:14.820Z,19.68
2023-07-06T11:47:41.002Z,19.69
2023-07-06T11:50:07.200Z,19.69
2023-07-06T11:52:33.354Z,19.68
2023-07-06T11:54:59.515Z,19.70
2023-07-06T11:57:25.682Z,19.70
2023-07-06T11:59:51.832Z,19.72
2023-07-06T12:02:18.099Z,19.71
2023-07-06T12:04:44.334Z,19.72
2023-07-06T12:07:10.478Z,19.72
2023-07-06T12:09:36.637Z,19.73
2023-07-06T12:12:02.792Z,19.73
2023-07-06T12:14:28.940Z,19.74
2023-07-06T12:16:55.106Z,19.74
2023-07-06T12:19:21.340Z,19.75
2023-07-06T12:21:47.505Z,19.75
2023-07-06T12:24:13.668Z,19.76
2023-07-06T12:26:39.807Z,19.76
2023-07-06T12:29:05.968Z,19.77
2023-07-06T12:31:32.235Z,19.78
2023-07-06T12:33:58.405Z,19.78
2023-07-06T12:36:24.578Z,19.78
2023-07-06T12:38:52.037Z,19.78
2023-07-06T12:41:19.422Z,19.78
2023-07-06T12:43:45.617Z,19.79
2023-07-06T12:46:11.954Z,19.79
2023-07-06T12:48:38.182Z,19.80
2023-07-06T12:51:04.357Z,19.81
2023-07-06T12:53:30.560Z,19.82
2023-07-06T12:55:56.864Z,19.81
2023-07-06T12:58:23.112Z,19.83
2023-07-06T13:00:49.493Z,19.83
2023-07-06T13:03:15.688Z,19.83
2023-07-06T13:05:42.058Z,19.83
2023-07-06T13:08:08.332Z,19.84
2023-07-06T13:10:34.476Z,19.83
2023-07-06T13:13:00.637Z,19.84
2023-07-06T13:15:26.896Z,19.85
2023-07-06T13:17:53.161Z,19.85
2023-07-06T13:20:19.388Z,19.86
2023-07-06T13:22:45.579Z,19.86
2023-07-06T13:25:11.753Z,19.85
2023-07-06T13:27:37.895Z,19.86
2023-07-06T13:30:04.139Z,19.87
2023-07-06T13:32:30.362Z,19.87
2023-07-06T13:34:56.521Z,19.87
2023-07-06T13:37:22.689Z,19.88
2023-07-06T13:39:48.888Z,19.87
2023-07-06T13:42:15.049Z,19.88
2023-07-06T13:44:41.223Z,19.89
2023-07-06T13:47:07.400Z,19.89
2023-07-06T13:49:33.559Z,19.89
2023-07-06T13:51:59.728Z,19.89
2023-07-06T13:54:25.883Z,19.89
2023-07-06T13:56:52.028Z,19.90
2023-07-06T13:59:18.272Z,19.90
2023-07-06T14:01:44.546Z,19.92
2023-07-06T14:04:10.775Z,19.91
2023-07-06T14:06:37.194Z,19.91
2023-07-06T14:09:03.338Z,19.92
2023-07-06T14:11:29.480Z,19.92
2023-07-06T14:13:55.691Z,19.93
2023-07-06T14:16:21.905Z,19.93
2023-07-06T14:18:48.080Z,19.93
2023-07-06T14:21:14.247Z,19.93
2023-07-06T14:23:40.509Z,19.95
2023-07-06T14:26:08.466Z,19.95
2023-07-06T14:28:34.672Z,19.95
2023-07-06T14:31:00.818Z,19.95
2023-07-06T14:33:26.962Z,19.96
2023-07-06T14:35:53.114Z,19.96
2023-07-06T14:38:19.256Z,19.96
2023-07-06T14:40:45.433Z,19.97
2023-07-06T14:43:11.591Z,19.97
2023-07-06T14:45:37.862Z,19.99
2023-07-06T14:48:04.156Z,19.98
2023-07-06T14:50:30.424Z,19.99
2023-07-06T14:52:56.593Z,19.99
2023-07-06T14:55:22.734Z,19.99
2023-07-06T14:57:48.924Z,19.99
2023-07-06T15:00:15.108Z,20.00
2023-07-06T15:02:41.282Z,20.01
2023-07-06T15:05:08.473Z,20.02
2023-07-06T15:07:34.668Z,20.02
2023-07-06T15:10:01.176Z,20.03
2023-07-06T15:12:27.384Z,20.03
2023-07-06T15:14:53.526Z,20.04
2023-07-06T15:17:19.766Z,20.04
2023-07-06T15:19:45.960Z,20.04
2023-07-06T15:22:12.094Z,20.04
2023-07-06T15:24:38.227Z,20.06
2023-07-06T15:27:04.393Z,20.06
2023-07-06T15:29:30.561Z,20.06
2023-07-06T15:31:56.738Z,20.07
2023-07-06T15:34:22.900Z,20.07
2023-07-06T15:36:49.056Z,20.07
2023-07-06T15:39:15.186Z,20.08
2023-07-06T15:41:41.380Z,20.07
2023-07-06T15:44:07.561Z,20.08
2023-07-06T15:46:33.741Z,20.09
2023-07-06T15:48:59.944Z,20.09
2023-07-06T15:51:26.086Z,20.09
2023-07-06T15:53:52.269Z,20.09
2023-07-06T15:56:20.235Z,20.10
2023-07-06T15:58:46.633Z,20.11
2023-07-06T16:01:12.867Z,20.12
2023-07-06T16:03:39.204Z,20.12
2023-07-06T16:06:05.480Z,20.11
2023-07-06T16:08:31.633Z,20.14
2023-07-06T16:10:58.337Z,20.13
2023-07-06T16:13:24.551Z,20.13
2023-07-06T16:15:50.723Z,20.14
2023-07-06T16:18:16.902Z,20.14
2023-07-06T16:20:43.058Z,20.15
2023-07-06T16:23:09.219Z,20.14
2023-07-06T16:25:35.452Z,20.15
2023-07-06T16:28:01.628Z,20.15
2023-07-06T16:30:27.807Z,20.16
2023-07-06T16:32:53.968Z,20.15
2023-07-06T16:35:20.128Z,20.16
2023-07-06T16:37:46.266Z,20.16
2023-07-06T16:40:12.498Z,20.16
2023-07-06T16:42:39.839Z,20.17
2023-07-06T16:45:06.061Z,20.18
2023-07-06T16:47:32.311Z,20.17
2023-07-06T16:49:58.543Z,20.18
2023-07-06T16:52:24.730Z,20.19
2023-07-06T16:54:50.997Z,20.19
2023-07-06T16:57:19.425Z,20.21
2023-07-06T16:59:47.099Z,20.20
2023-07-06T17:02:13.428Z,20.21
2023-07-06T17:04:39.750Z,20.21
2023-07-06T17:07:05.904Z,20.23
2023-07-06T17:09:32.624Z,20.22
2023-07-06T17:11:58.785Z,20.24
2023-07-06T17:14:24.940Z,20.24
2023-07-06T17:16:51.682Z,20.25
2023-07-06T17:19:17.863Z,20.24
2023-07-06T17:21:44.009Z,20.25
2023-07-06T17:24:10.182Z,20.25
2023-07-06T17:26:36.326Z,20.25
2023-07-06T17:29:02.460Z,20.27
2023-07-06T17:31:28.617Z,20.28
2023-07-06T17:33:54.788Z,20.28
2023-07-06T17:36:20.961Z,20.28
2023-07-06T17:38:47.133Z,20.29
2023-07-06T17:41:13.307Z,20.29
2023-07-06T17:43:39.451Z,20.30
2023-07-06T17:46:05.751Z,20.30
2023-07-06T17:48:31.984Z,20.31
2023-07-06T17:50:58.240Z,20.31
2023-07-06T17:53:24.416Z,20.32
2023-07-06T17:55:50.547Z,20.32
2023-07-06T17:58:16.673Z,20.32
2023-07-06T18:00:42.839Z,20.33
2023-07-06T18:03:08.974Z,20.34
2023-07-06T18:05:35.117Z,20.33
2023-07-06T18:08:01.668Z,20.33
2023-07-06T18:10:27.815Z,20.35
2023-07-06T18:12:53.980Z,20.35
2023-07-06T18:15:20.138Z,20.36
2023-07-06T18:17:46.379Z,20.36
2023-07-06T18:20:12.575Z,20.37
2023-07-06T18:22:38.743Z,20.36
2023-07-06T18:25:05.411Z,20.38
2023-07-06T18:27:31.618Z,20.38
2023-07-06T18:29:57.798Z,20.39
2023-07-06T18:32:24.005Z,20.39
2023-07-06T18:34:50.194Z,20.40
2023-07-06T18:37:16.383Z,20.40
2023-07-06T18:39:42.556Z,20.42
2023-07-06T18:42:08.699Z,20.41
2023-07-06T18:44:34.875Z,20.42
2023-07-06T18:47:01.009Z,20.42
2023-07-06T18:49:27.144Z,20.41
2023-07-06T18:51:53.318Z,20.41
2023-07-06T18:54:19.481Z,20.42
2023-07-06T18:56:45.638Z,20.41
2023-07-06T18:59:11.815Z,20.43
2023-07-06T19:01:38.127Z,20.44
2023-07-06T19:04:04.417Z,20.43
2023-07-06T19:06:30.759Z,20.43
2023-07-06T19:08:56.938Z,20.44
2023-07-06T19:11:23.066Z,20.44
2023-07-06T19:13:49.305Z,20.46
2023-07-06T19:16:15.486Z,20.45
2023-07-06T19:18:41.637Z,20.46
2023-07-06T19:21:07.914Z,20.45
2023-07-06T19:23:34.062Z,20.47
2023-07-06T19:26:00.378Z,20.47
2023-07-06T19:28:26.721Z,20.47
2023-07-06T19:30:52.913Z,20.48
2023-07-06T19:33:19.113Z,20.47
2023-07-06T19:35:45.292Z,20.47
2023-07-06T19:38:11.482Z,20.47
2023-07-06T19:40:37.650Z,20.48
2023-07-06T19:43:03.841Z,20.48
2023-07-06T19:45:29.991Z,20.48
2023-07-06T19:47:56.152Z,20.49
2023-07-06T19:50:22.361Z,20.49
2023-07-06T19:52:48.631Z,20.48
2023-07-06T19:55:14.778Z,20.48
2023-07-06T19:57:45.165Z,20.48
2023-07-06T20:00:11.775Z,20.48
2023-07-06T20:02:38.065Z,20.48
2023-07-06T20:05:04.285Z,20.48
2023-07-06T20:07:30.448Z,20.48
2023-07-06T20:09:56.620Z,20.48
2023-07-06T20:12:22.790Z,20.49
2023-07-06T20:14:48.925Z,20.49
2023-07-06T20:17:15.068Z,20.49
2023-07-06T20:19:41.246Z,20.48
2023-07-06T20:22:07.441Z,20.49
2023-07-06T20:24:33.587Z,20.49
2023-07-06T20:27:00.290Z,20.49
2023-07-06T20:29:26.471Z,20.49
2023-07-06T20:31:52.623Z,20.49
2023-07-06T20:34:18.829Z,20.49
2023-07-06T20:36:44.990Z,20.48
2023-07-06T20:39:11.136Z,20.49
2023-07-06T20:41:37.415Z,20.50
2023-07-06T20:44:03.564Z,20.50
2023-07-06T20:46:29.738Z,20.50
2023-07-06T20:48:55.986Z,20.50
2023-07-06T20:51:22.145Z,20.49
2023-07-06T20:53:48.309Z,20.49
2023-07-06T20:56:14.551Z,20.49
2023-07-06T20:58:40.739Z,20.48
2023-07-06T21:01:06.888Z,20.48
2023-07-06T21:03:33.160Z,20.49
2023-07-06T21:05:59.329Z,20.48
2023-07-06T21:08:25.498Z,20.48
2023-07-06T21:10:51.716Z,20.49
2023-07-06T21:13:17.927Z,20.48
2023-07-06T21:15:44.188Z,20.48
2023-07-06T21:18:10.391Z,20.48
2023-07-06T21:20:36.561Z,20.48
2023-07-06T21:23:02.764Z,20.47
2023-07-06T21:25:28.934Z,20.48
2023-07-06T21:27:55.111Z,20.48
2023-07-06T21:30:21.277Z,20.48
2023-07-06T21:32:47.458Z,20.47
2023-07-06T21:35:13.652Z,20.47
2023-07-06T21:37:39.826Z,20.47
2023-07-06T21:40:05.994Z,20.46
2023-07-06T21:42:32.141Z,20.47
2023-07-06T21:44:58.271Z,20.47
2023-07-06T21:47:24.452Z,20.47
2023-07-06T21:49:50.612Z,20.47
2023-07-06T21:52:16.810Z,20.46
2023-07-06T21:54:43.020Z,20.46
2023-07-06T21:57:09.198Z,20.46
2023-07-06T21:59:35.352Z,20.46
2023-07-06T22:02:01.527Z,20.47
2023-07-06T22:04:27.737Z,20.46
2023-07-06T22:06:53.960Z,20.46
2023-07-06T22:09:20.137Z,20.46
2023-07-06T22:11:46.305Z,20.45
2023-07-06T22:14:12.453Z,20.44
2023-07-06T22:16:38.654Z,20.43
2023-07-06T22:19:04.830Z,20.43
2023-07-06T22:21:30.988Z,20.44
2023-07-06T22:23:57.148Z,20.43
2023-07-06T22:26:23.300Z,20.43
2023-07-06T22:28:49.436Z,20.44
2023-07-06T22:31:16.124Z,20.44
2023-07-06T22:33:42.308Z,20.43
2023-07-06T22:36:08.574Z,20.43
2023-07-06T22:38:34.879Z,20.43
2023-07-06T22:41:01.076Z,20.43
2023-07-06T22:43:27.207Z,20.42
2023-07-06T22:45:53.430Z,20.42
2023-07-06T22:48:19.642Z,20.43
2023-07-06T22:50:45.817Z,20.41
2023-07-06T22:53:11.987Z,20.40
2023-07-06T22:55:38.126Z,20.41
2023-07-06T22:58:04.280Z,20.41
2023-07-06T23:00:30.453Z,20.40
2023-07-06T23:02:56.660Z,20.41
2023-07-06T23:05:22.853Z,20.40
2023-07-06T23:07:49.040Z,20.40
2023-07-06T23:10:15.223Z,20.40
2023-07-06T23:12:41.363Z,20.40
2023-07-06T23:15:07.533Z,20.40
2023-07-06T23:17:33.683Z,20.39
2023-07-06T23:19:59.953Z,20.39
2023-07-06T23:22:26.936Z,20.39
2023-07-06T23:24:53.089Z,20.38
2023-07-06T23:27:19.251Z,20.37
2023-07-06T23:29:45.430Z,20.37
2023-07-06T23:32:11.582Z,20.38
2023-07-06T23:34:37.739Z,20.36
2023-07-06T23:37:04.446Z,20.36
2023-07-06T23:39:30.613Z,20.36
2023-07-06T23:41:56.752Z,20.36
2023-07-06T23:44:22.928Z,20.36
2023-07-06T23:46:49.142Z,20.36
2023-07-06T23:49:15.338Z,20.35
2023-07-06T23:51:41.503Z,20.34
2023-07-06T23:54:07.726Z,20.34
2023-07-06T23:56:33.934Z,20.35
2023-07-06T23:59:00.091Z,20.34
